createdAt,value
2023-03-20T00:00:37.444Z,1006.36
2023-03-20T00:01:37.426Z,1006.38
2023-03-20T00:02:37.434Z,1006.39
2023-03-20T00:03:37.432Z,1006.40
2023-03-20T00:04:37.498Z,1006.44
2023-03-20T00:05:37.575Z,1006.46
2023-03-20T00:06:37.382Z,1006.47
2023-03-20T00:07:37.360Z,1006.48
2023-03-20T00:08:37.376Z,1006.49
2023-03-20T00:09:37.343Z,1006.47
2023-03-20T00:10:37.387Z,1006.48
2023-03-20T00:11:37.318Z,1006.48
2023-03-20T00:12:37.317Z,1006.49
2023-03-20T00:13:37.306Z,1006.47
2023-03-20T00:14:37.298Z,1006.48
2023-03-20T00:15:37.409Z,1006.49
2023-03-20T00:16:37.332Z,1006.48
2023-03-20T00:17:37.254Z,1006.50
2023-03-20T00:18:37.245Z,1006.51
2023-03-20T00:19:37.234Z,1006.53
2023-03-20T00:20:37.555Z,1006.55
2023-03-20T00:21:37.211Z,1006.56
2023-03-20T00:22:37.209Z,1006.59
2023-03-20T00:23:37.210Z,1006.60
2023-03-20T00:24:37.182Z,1006.62
2023-03-20T00:25:37.406Z,1006.59
2023-03-20T00:26:37.148Z,1006.60
2023-03-20T00:27:37.156Z,1006.61
2023-03-20T00:28:37.151Z,1006.61
2023-03-20T00:29:37.151Z,1006.62
2023-03-20T00:30:37.114Z,1006.61
2023-03-20T00:31:37.163Z,1006.63
2023-03-20T00:32:37.100Z,1006.65
2023-03-20T00:33:37.096Z,1006.63
2023-03-20T00:34:37.091Z,1006.61
2023-03-20T00:35:37.488Z,1006.61
2023-03-20T00:36:37.046Z,1006.61
2023-03-20T00:37:37.071Z,1006.62
2023-03-20T00:38:37.030Z,1006.62
2023-03-20T00:39:37.072Z,1006.61
2023-03-20T00:40:37.009Z,1006.61
2023-03-20T00:41:37.014Z,1006.61
2023-03-20T00:42:36.980Z,1006.61
2023-03-20T00:43:36.984Z,1006.60
2023-03-20T00:44:36.953Z,1006.61
2023-03-20T00:45:37.185Z,1006.62
2023-03-20T00:46:36.971Z,1006.63
2023-03-20T00:47:36.930Z,1006.64
2023-03-20T00:48:36.912Z,1006.67
2023-03-20T00:49:36.934Z,1006.68
2023-03-20T00:50:36.892Z,1006.70
2023-03-20T00:51:36.906Z,1006.71
2023-03-20T00:52:36.875Z,1006.72
2023-03-20T00:53:36.884Z,1006.72
2023-03-20T00:54:36.874Z,1006.72
2023-03-20T00:55:37.257Z,1006.73
2023-03-20T00:56:36.831Z,1006.74
2023-03-20T00:57:36.841Z,1006.75
2023-03-20T00:58:36.805Z,1006.72
2023-03-20T00:59:36.818Z,1006.72
2023-03-20T01:00:36.878Z,1006.73
2023-03-20T01:01:36.828Z,1006.72
2023-03-20T01:02:36.764Z,1006.71
2023-03-20T01:03:39.081Z,1006.70
2023-03-20T01:04:36.745Z,1006.72
2023-03-20T01:05:37.149Z,1006.71
2023-03-20T01:06:36.720Z,1006.71
2023-03-20T01:07:36.722Z,1006.71
2023-03-20T01:08:36.709Z,1006.73
2023-03-20T01:09:36.713Z,1006.70
2023-03-20T01:10:36.691Z,1006.71
2023-03-20T01:11:36.691Z,1006.69
2023-03-20T01:12:36.650Z,1006.71
2023-03-20T01:13:36.670Z,1006.70
2023-03-20T01:14:36.646Z,1006.73
2023-03-20T01:15:36.930Z,1006.71
2023-03-20T01:16:36.682Z,1006.70
2023-03-20T01:17:36.624Z,1006.69
2023-03-20T01:18:36.599Z,1006.70
2023-03-20T01:19:36.608Z,1006.73
2023-03-20T01:20:36.580Z,1006.71
2023-03-20T01:21:36.666Z,1006.72
2023-03-20T01:22:36.569Z,1006.73
2023-03-20T01:23:36.555Z,1006.72
2023-03-20T01:24:38.171Z,1006.73
2023-03-20T01:25:36.738Z,1006.73
2023-03-20T01:26:36.514Z,1006.72
2023-03-20T01:27:36.514Z,1006.72
2023-03-20T01:28:36.495Z,1006.72
2023-03-20T01:29:36.483Z,1006.70
2023-03-20T01:30:36.465Z,1006.70
2023-03-20T01:31:36.477Z,1006.70
2023-03-20T01:32:36.466Z,1006.70
2023-03-20T01:33:36.451Z,1006.71
2023-03-20T01:34:36.430Z,1006.72
2023-03-20T01:35:36.743Z,1006.71
2023-03-20T01:36:36.387Z,1006.72
2023-03-20T01:37:36.387Z,1006.71
2023-03-20T01:38:36.365Z,1006.72
2023-03-20T01:39:36.422Z,1006.72
2023-03-20T01:40:36.366Z,1006.73
2023-03-20T01:41:36.355Z,1006.72
2023-03-20T01:42:36.327Z,1006.75
2023-03-20T01:43:36.336Z,1006.73
2023-03-20T01:44:36.313Z,1006.74
2023-03-20T01:45:36.718Z,1006.74
2023-03-20T01:46:36.283Z,1006.75
2023-03-20T01:47:36.286Z,1006.76
2023-03-20T01:48:36.268Z,1006.73
2023-03-20T01:49:36.279Z,1006.74
2023-03-20T01:50:36.242Z,1006.74
2023-03-20T01:51:36.310Z,1006.73
2023-03-20T01:52:36.233Z,1006.74
2023-03-20T01:53:36.232Z,1006.74
2023-03-20T01:54:36.201Z,1006.74
2023-03-20T01:55:36.593Z,1006.74
2023-03-20T01:56:36.185Z,1006.76
2023-03-20T01:57:36.226Z,1006.77
2023-03-20T01:58:36.226Z,1006.77
2023-03-20T01:59:36.166Z,1006.79
2023-03-20T02:00:36.129Z,1006.78
2023-03-20T02:01:36.198Z,1006.79
2023-03-20T02:02:36.133Z,1006.79
2023-03-20T02:03:36.115Z,1006.80
2023-03-20T02:04:36.162Z,1006.80
2023-03-20T02:05:36.424Z,1006.80
2023-03-20T02:06:36.065Z,1006.82
2023-03-20T02:07:36.114Z,1006.82
2023-03-20T02:08:36.045Z,1006.84
2023-03-20T02:09:36.057Z,1006.83
2023-03-20T02:10:36.038Z,1006.83
2023-03-20T02:11:36.059Z,1006.83
2023-03-20T02:12:36.010Z,1006.83
2023-03-20T02:13:36.018Z,1006.82
2023-03-20T02:14:35.989Z,1006.82
2023-03-20T02:15:36.348Z,1006.81
2023-03-20T02:16:36.017Z,1006.82
2023-03-20T02:17:35.972Z,1006.83
2023-03-20T02:18:35.938Z,1006.84
2023-03-20T02:19:35.949Z,1006.85
2023-03-20T02:20:35.921Z,1006.86
2023-03-20T02:21:35.930Z,1006.85
2023-03-20T02:22:35.897Z,1006.85
2023-03-20T02:23:35.942Z,1006.85
2023-03-20T02:24:35.893Z,1006.87
2023-03-20T02:25:36.088Z,1006.87
2023-03-20T02:26:35.851Z,1006.87
2023-03-20T02:27:35.859Z,1006.87
2023-03-20T02:28:35.837Z,1006.88
2023-03-20T02:29:35.910Z,1006.88
2023-03-20T07:00:45.184Z,1007.77
2023-03-20T07:01:46.142Z,1007.77
2023-03-20T07:02:46.129Z,1007.77
2023-03-20T07:03:46.130Z,1007.77
2023-03-20T07:04:46.112Z,1007.77
2023-03-20T07:05:46.095Z,1007.77
2023-03-20T07:06:46.103Z,1007.76
2023-03-20T07:07:46.094Z,1007.77
2023-03-20T07:08:46.075Z,1007.76
2023-03-20T07:09:46.070Z,1007.78
2023-03-20T07:10:46.064Z,1007.78
2023-03-20T07:11:46.040Z,1007.81
2023-03-20T07:12:46.030Z,1007.82
2023-03-20T07:13:48.017Z,1007.83
2023-03-20T07:14:46.004Z,1007.84
2023-03-20T07:16:03.303Z,1007.83
2023-03-20T07:16:46.025Z,1007.84
2023-03-20T07:17:45.968Z,1007.84
2023-03-20T07:18:45.958Z,1007.86
2023-03-20T07:19:45.933Z,1007.86
2023-03-20T07:20:45.940Z,1007.88
2023-03-20T07:21:45.944Z,1007.87
2023-03-20T07:22:45.918Z,1007.91
2023-03-20T07:23:45.892Z,1007.93
2023-03-20T07:24:47.306Z,1007.97
2023-03-20T07:25:46.111Z,1007.97
2023-03-20T07:26:45.891Z,1007.97
2023-03-20T07:27:45.882Z,1007.97
2023-03-20T07:28:45.855Z,1007.98
2023-03-20T07:29:45.839Z,1007.97
2023-03-20T07:30:45.837Z,1007.99
2023-03-20T07:31:45.831Z,1007.97
2023-03-20T07:32:45.873Z,1007.96
2023-03-20T07:33:45.812Z,1007.97
2023-03-20T07:34:45.799Z,1007.98
2023-03-20T07:35:45.821Z,1007.98
2023-03-20T07:36:45.778Z,1007.96
2023-03-20T07:37:45.748Z,1007.97
2023-03-20T07:38:45.760Z,1007.98
2023-03-20T07:39:45.740Z,1007.99
2023-03-20T07:40:45.720Z,1008.01
2023-03-20T07:41:45.704Z,1008.02
2023-03-20T07:42:45.694Z,1008.05
2023-03-20T07:43:45.702Z,1008.05
2023-03-20T07:44:45.730Z,1008.06
2023-03-20T07:45:45.652Z,1008.04
2023-03-20T07:46:45.662Z,1008.05
2023-03-20T07:47:45.677Z,1008.07
2023-03-20T07:48:45.650Z,1008.07
2023-03-20T07:49:45.610Z,1008.08
2023-03-20T07:50:45.659Z,1008.09
2023-03-20T07:51:45.590Z,1008.10
2023-03-20T07:52:45.604Z,1008.12
2023-03-20T07:53:45.572Z,1008.11
2023-03-20T07:54:45.578Z,1008.13
2023-03-20T07:55:45.548Z,1008.14
2023-03-20T07:56:45.809Z,1008.13
2023-03-20T07:57:45.519Z,1008.15
2023-03-20T07:58:45.521Z,1008.14
2023-03-20T07:59:45.531Z,1008.13
2023-03-20T08:00:45.504Z,1008.12
2023-03-20T08:01:45.511Z,1008.12
2023-03-20T08:02:45.564Z,1008.14
2023-03-20T08:03:45.516Z,1008.14
2023-03-20T08:04:45.455Z,1008.13
2023-03-20T08:05:47.315Z,1008.13
2023-03-20T08:06:45.432Z,1008.11
2023-03-20T08:07:45.423Z,1008.10
2023-03-20T08:08:45.417Z,1008.10
2023-03-20T08:09:45.391Z,1008.10
2023-03-20T08:10:45.466Z,1008.11
2023-03-20T08:11:45.386Z,1008.11
2023-03-20T08:12:45.375Z,1008.13
2023-03-20T08:13:45.346Z,1008.15
2023-03-20T08:14:45.357Z,1008.16
2023-03-20T08:15:45.333Z,1008.19
2023-03-20T08:16:45.454Z,1008.22
2023-03-20T08:17:45.305Z,1008.23
2023-03-20T08:18:45.338Z,1008.26
2023-03-20T08:19:45.300Z,1008.28
2023-03-20T08:20:45.295Z,1008.30
2023-03-20T08:21:45.268Z,1008.33
2023-03-20T08:22:45.286Z,1008.34
2023-03-20T08:23:45.259Z,1008.36
2023-03-20T08:24:45.245Z,1008.39
2023-03-20T08:25:45.249Z,1008.37
2023-03-20T08:26:45.211Z,1008.37
2023-03-20T08:27:45.243Z,1008.36
2023-03-20T08:28:47.949Z,1008.36
2023-03-20T08:29:45.189Z,1008.35
2023-03-20T08:30:45.208Z,1008.37
2023-03-20T08:31:45.161Z,1008.37
2023-03-20T08:32:45.205Z,1008.39
2023-03-20T08:33:45.152Z,1008.41
2023-03-20T08:34:45.132Z,1008.43
2023-03-20T08:35:45.193Z,1008.45
2023-03-20T08:36:45.118Z,1008.47
2023-03-20T08:37:45.384Z,1008.53
2023-03-20T08:38:45.081Z,1008.49
2023-03-20T08:39:45.110Z,1008.47
2023-03-20T08:40:45.058Z,1008.47
2023-03-20T08:41:45.062Z,1008.45
2023-03-20T08:42:45.046Z,1008.43
2023-03-20T08:43:45.040Z,1008.43
2023-03-20T08:44:45.019Z,1008.46
2023-03-20T08:45:45.117Z,1008.46
2023-03-20T08:46:45.008Z,1008.47
2023-03-20T08:47:44.991Z,1008.47
2023-03-20T08:48:44.966Z,1008.48
2023-03-20T08:49:44.967Z,1008.49
2023-03-20T08:50:44.972Z,1008.50
2023-03-20T08:51:44.960Z,1008.51
2023-03-20T08:52:44.952Z,1008.49
2023-03-20T08:53:44.920Z,1008.47
2023-03-20T08:54:44.898Z,1008.47
2023-03-20T08:55:44.904Z,1008.47
2023-03-20T08:56:44.881Z,1008.48
2023-03-20T08:57:44.922Z,1008.50
2023-03-20T08:58:44.858Z,1008.51
2023-03-20T08:59:44.854Z,1008.51
2023-03-20T09:00:44.879Z,1008.55
2023-03-20T09:01:49.751Z,1008.55
2023-03-20T09:02:44.930Z,1008.58
2023-03-20T09:03:44.830Z,1008.56
2023-03-20T09:04:44.793Z,1008.57
2023-03-20T09:05:44.812Z,1008.58
2023-03-20T09:06:44.812Z,1008.59
2023-03-20T09:07:44.784Z,1008.61
2023-03-20T09:08:44.753Z,1008.62
2023-03-20T09:09:44.755Z,1008.60
2023-03-20T09:10:44.726Z,1008.59
2023-03-20T09:11:44.731Z,1008.56
2023-03-20T09:12:44.738Z,1008.58
2023-03-20T09:13:44.752Z,1008.57
2023-03-20T09:14:44.712Z,1008.56
2023-03-20T09:15:44.734Z,1008.56
2023-03-20T09:16:44.680Z,1008.56
2023-03-20T09:17:44.667Z,1008.58
2023-03-20T09:18:44.654Z,1008.59
2023-03-20T09:19:44.686Z,1008.60
2023-03-20T09:20:44.654Z,1008.62
2023-03-20T09:21:44.622Z,1008.58
2023-03-20T09:22:44.593Z,1008.58
2023-03-20T09:23:44.646Z,1008.58
2023-03-20T09:24:44.589Z,1008.59
2023-03-20T09:25:44.587Z,1008.58
2023-03-20T09:26:44.554Z,1008.57
2023-03-20T09:27:44.557Z,1008.56
2023-03-20T09:28:44.541Z,1008.54
2023-03-20T09:29:44.558Z,1008.55
2023-03-20T09:30:44.579Z,1008.55
2023-03-20T09:31:44.533Z,1008.59
2023-03-20T09:32:44.512Z,1008.62
2023-03-20T09:33:44.497Z,1008.65
2023-03-20T09:34:44.470Z,1008.63
2023-03-20T09:35:44.544Z,1008.63
2023-03-20T09:36:44.445Z,1008.63
2023-03-20T09:37:44.464Z,1008.62
2023-03-20T09:38:44.427Z,1008.63
2023-03-20T09:39:44.422Z,1008.62
2023-03-20T09:40:44.401Z,1008.60
2023-03-20T09:41:56.337Z,1008.59
2023-03-20T09:42:44.386Z,1008.57
2023-03-20T09:43:44.396Z,1008.59
2023-03-20T09:44:44.382Z,1008.56
2023-03-20T09:45:44.379Z,1008.53
2023-03-20T09:46:44.351Z,1008.53
2023-03-20T09:47:44.365Z,1008.54
2023-03-20T09:48:44.317Z,1008.56
2023-03-20T09:49:44.320Z,1008.58
2023-03-20T09:50:44.302Z,1008.55
2023-03-20T09:51:44.314Z,1008.53
2023-03-20T09:52:44.271Z,1008.55
2023-03-20T09:53:44.284Z,1008.53
2023-03-20T09:54:54.111Z,1008.52
2023-03-20T09:55:44.316Z,1008.52
2023-03-20T09:56:44.229Z,1008.52
2023-03-20T09:57:44.229Z,1008.52
2023-03-20T09:58:44.197Z,1008.51
2023-03-20T09:59:44.217Z,1008.54
2023-03-20T10:00:44.188Z,1008.54
2023-03-20T10:01:44.277Z,1008.52
2023-03-20T10:02:44.158Z,1008.53
2023-03-20T10:03:44.172Z,1008.54
2023-03-20T10:04:44.221Z,1008.59
2023-03-20T10:05:44.303Z,1008.59
2023-03-20T10:06:44.167Z,1008.59
2023-03-20T10:07:44.114Z,1008.61
2023-03-20T10:08:44.118Z,1008.68
2023-03-20T10:09:44.112Z,1008.67
2023-03-20T10:10:44.088Z,1008.70
2023-03-20T10:11:44.093Z,1008.70
2023-03-20T10:12:44.038Z,1008.67
2023-03-20T10:13:44.051Z,1008.68
2023-03-20T10:14:44.021Z,1008.64
2023-03-20T10:15:44.027Z,1008.66
2023-03-20T10:16:44.048Z,1008.64
2023-03-20T10:17:44.001Z,1008.62
2023-03-20T10:18:43.979Z,1008.60
2023-03-20T10:19:43.989Z,1008.60
2023-03-20T10:20:43.959Z,1008.60
2023-03-20T10:21:43.988Z,1008.57
2023-03-20T10:22:44.023Z,1008.57
2023-03-20T10:23:43.978Z,1008.60
2023-03-20T10:24:43.916Z,1008.60
2023-03-20T10:25:43.915Z,1008.61
2023-03-20T10:26:43.893Z,1008.61
2023-03-20T10:27:43.912Z,1008.62
2023-03-20T10:28:43.897Z,1008.62
2023-03-20T10:29:43.882Z,1008.62
2023-03-20T10:30:43.847Z,1008.57
2023-03-20T10:31:43.929Z,1008.58
2023-03-20T10:32:43.874Z,1008.53
2023-03-20T10:33:43.832Z,1008.56
2023-03-20T10:34:43.836Z,1008.54
2023-03-20T10:35:43.850Z,1008.53
2023-03-20T10:36:43.788Z,1008.55
2023-03-20T10:37:43.799Z,1008.58
2023-03-20T10:38:43.772Z,1008.53
2023-03-20T10:39:43.799Z,1008.53
2023-03-20T10:40:44.434Z,1008.54
2023-03-20T10:41:43.741Z,1008.51
2023-03-20T10:42:43.736Z,1008.49
2023-03-20T10:43:43.724Z,1008.51
2023-03-20T10:44:43.701Z,1008.50
2023-03-20T10:45:43.747Z,1008.48
2023-03-20T10:46:43.713Z,1008.46
2023-03-20T10:47:43.753Z,1008.44
2023-03-20T10:48:43.669Z,1008.47
2023-03-20T10:49:43.680Z,1008.47
2023-03-20T10:50:43.700Z,1008.41
2023-03-20T10:51:43.654Z,1008.41
2023-03-20T10:52:43.614Z,1008.38
2023-03-20T10:53:43.621Z,1008.38
2023-03-20T10:54:43.618Z,1008.40
2023-03-20T10:55:43.606Z,1008.34
2023-03-20T10:56:43.591Z,1008.30
2023-03-20T10:57:43.580Z,1008.34
2023-03-20T10:58:43.566Z,1008.35
2023-03-20T10:59:43.553Z,1008.37
2023-03-20T11:00:43.593Z,1008.36
2023-03-20T11:01:43.561Z,1008.34
2023-03-20T11:02:43.525Z,1008.34
2023-03-20T11:03:43.548Z,1008.30
2023-03-20T11:04:43.489Z,1008.41
2023-03-20T11:05:43.492Z,1008.30
2023-03-20T11:06:43.565Z,1008.34
2023-03-20T11:07:43.468Z,1008.31
2023-03-20T11:08:43.468Z,1008.25
2023-03-20T11:09:43.450Z,1008.25
2023-03-20T11:10:43.439Z,1008.29
2023-03-20T11:11:43.430Z,1008.23
2023-03-20T11:12:43.402Z,1008.28
2023-03-20T11:13:43.415Z,1008.26
2023-03-20T11:14:43.405Z,1008.29
2023-03-20T11:15:43.383Z,1008.26
2023-03-20T11:16:43.492Z,1008.26
2023-03-20T11:17:43.362Z,1008.28
2023-03-20T11:18:43.344Z,1008.27
2023-03-20T11:19:43.339Z,1008.31
2023-03-20T11:20:43.344Z,1008.27
2023-03-20T11:21:43.342Z,1008.33
2023-03-20T11:22:43.325Z,1008.27
2023-03-20T11:23:43.303Z,1008.27
2023-03-20T11:24:43.287Z,1008.24
2023-03-20T11:25:43.277Z,1008.23
2023-03-20T11:26:43.403Z,1008.23
2023-03-20T11:27:43.248Z,1008.22
2023-03-20T11:28:43.230Z,1008.20
2023-03-20T11:29:45.846Z,1008.22
2023-03-20T11:31:01.351Z,1008.21
2023-03-20T11:31:43.283Z,1008.17
2023-03-20T11:32:43.219Z,1008.16
2023-03-20T11:33:43.196Z,1008.19
2023-03-20T11:34:43.168Z,1008.13
2023-03-20T11:35:43.180Z,1008.12
2023-03-20T11:36:43.186Z,1008.10
2023-03-20T11:37:43.161Z,1008.08
2023-03-20T11:38:43.116Z,1008.11
2023-03-20T11:39:43.155Z,1008.08
2023-03-20T11:40:43.105Z,1008.09
2023-03-20T11:41:43.112Z,1008.12
2023-03-20T11:42:43.114Z,1008.08
2023-03-20T11:43:43.099Z,1008.05
2023-03-20T11:44:43.051Z,1008.03
2023-03-20T11:45:43.126Z,1008.02
2023-03-20T11:46:44.335Z,1008.05
2023-03-20T11:47:43.029Z,1008.02
2023-03-20T11:48:43.026Z,1007.97
2023-03-20T11:49:43.021Z,1007.92
2023-03-20T11:50:42.984Z,1007.92
2023-03-20T11:51:42.993Z,1007.94
2023-03-20T11:52:42.951Z,1007.93
2023-03-20T11:53:42.968Z,1007.90
2023-03-20T11:54:42.960Z,1007.83
2023-03-20T11:55:42.938Z,1007.83
2023-03-20T11:56:42.924Z,1007.81
2023-03-20T11:57:43.261Z,1007.80
2023-03-20T11:58:42.892Z,1007.80
2023-03-20T11:59:42.934Z,1007.78
2023-03-20T12:00:42.888Z,1007.78
2023-03-20T12:01:42.874Z,1007.82
2023-03-20T12:02:42.915Z,1007.83
2023-03-20T12:03:42.947Z,1007.79
2023-03-20T12:04:42.889Z,1007.78
2023-03-20T12:05:42.851Z,1007.75
2023-03-20T12:06:42.821Z,1007.73
2023-03-20T12:07:42.815Z,1007.72
2023-03-20T12:08:42.815Z,1007.75
2023-03-20T12:09:42.801Z,1007.78
2023-03-20T12:10:42.833Z,1007.68
2023-03-20T12:11:42.790Z,1007.67
2023-03-20T12:12:42.751Z,1007.67
2023-03-20T12:13:42.752Z,1007.70
2023-03-20T12:14:42.727Z,1007.63
2023-03-20T12:15:42.781Z,1007.64
2023-03-20T12:16:43.316Z,1007.60
2023-03-20T12:17:42.862Z,1007.63
2023-03-20T12:18:42.678Z,1007.60
2023-03-20T12:19:42.680Z,1007.59
2023-03-20T12:20:42.667Z,1007.59
2023-03-20T12:21:42.672Z,1007.58
2023-03-20T12:22:42.644Z,1007.52
2023-03-20T12:23:42.662Z,1007.54
2023-03-20T12:24:42.623Z,1007.54
2023-03-20T12:25:42.618Z,1007.59
2023-03-20T12:26:42.616Z,1007.53
2023-03-20T12:27:42.601Z,1007.63
2023-03-20T12:28:42.618Z,1007.53
2023-03-20T12:29:42.576Z,1007.53
2023-03-20T12:30:42.584Z,1007.54
2023-03-20T12:31:42.545Z,1007.53
2023-03-20T12:32:42.553Z,1007.55
2023-03-20T12:33:42.567Z,1007.49
2023-03-20T12:34:42.522Z,1007.58
2023-03-20T12:35:42.560Z,1007.52
2023-03-20T12:36:42.485Z,1007.54
2023-03-20T12:37:42.473Z,1007.50
2023-03-20T12:38:42.501Z,1007.47
2023-03-20T12:39:42.480Z,1007.46
2023-03-20T12:40:42.469Z,1007.45
2023-03-20T12:41:42.437Z,1007.43
2023-03-20T12:42:42.442Z,1007.43
2023-03-20T12:43:42.462Z,1007.39
2023-03-20T12:44:42.449Z,1007.42
2023-03-20T12:45:44.782Z,1007.39
2023-03-20T12:46:42.497Z,1007.37
2023-03-20T12:47:42.381Z,1007.31
2023-03-20T12:48:42.371Z,1007.33
2023-03-20T12:49:42.357Z,1007.34
2023-03-20T12:50:42.366Z,1007.38
2023-03-20T12:51:42.327Z,1007.34
2023-03-20T12:52:42.323Z,1007.31
2023-03-20T12:53:42.317Z,1007.31
2023-03-20T12:54:42.320Z,1007.28
2023-03-20T12:55:42.297Z,1007.26
2023-03-20T12:56:42.307Z,1007.26
2023-03-20T12:57:43.295Z,1007.22
2023-03-20T12:58:42.317Z,1007.21
2023-03-20T12:59:42.238Z,1007.21
2023-03-20T13:00:42.256Z,1007.19
2023-03-20T13:01:42.251Z,1007.18
2023-03-20T13:02:42.336Z,1007.19
2023-03-20T13:03:42.197Z,1007.27
2023-03-20T13:04:42.237Z,1007.21
2023-03-20T13:05:42.188Z,1007.22
2023-03-20T13:06:42.253Z,1007.18
2023-03-20T13:07:42.148Z,1007.21
2023-03-20T13:08:42.167Z,1007.15
2023-03-20T13:09:44.735Z,1007.18
2023-03-20T13:10:50.181Z,1007.18
2023-03-20T13:11:42.129Z,1007.18
2023-03-20T13:12:42.149Z,1007.14
2023-03-20T13:13:42.087Z,1007.11
2023-03-20T13:14:42.125Z,1007.10
2023-03-20T13:15:42.211Z,1007.08
2023-03-20T13:16:42.082Z,1007.06
2023-03-20T13:17:42.066Z,1007.11
2023-03-20T13:18:42.043Z,1007.05
2023-03-20T13:19:42.041Z,1007.01
2023-03-20T13:20:42.073Z,1007.02
2023-03-20T13:21:42.040Z,1007.00
2023-03-20T13:22:42.001Z,1006.98
2023-03-20T13:23:41.980Z,1006.94
2023-03-20T13:24:41.971Z,1007.02
2023-03-20T13:25:41.964Z,1006.97
2023-03-20T13:26:41.979Z,1006.92
2023-03-20T13:27:41.955Z,1006.94
2023-03-20T13:28:41.985Z,1006.93
2023-03-20T13:29:41.923Z,1006.87
2023-03-20T13:30:41.922Z,1006.93
2023-03-20T13:31:41.982Z,1006.87
2023-03-20T13:32:41.986Z,1006.89
2023-03-20T13:33:41.880Z,1006.91
2023-03-20T13:34:41.874Z,1006.90
2023-03-20T13:35:41.883Z,1006.88
2023-03-20T13:36:41.858Z,1006.92
2023-03-20T13:37:41.832Z,1006.90
2023-03-20T13:38:41.857Z,1006.95
2023-03-20T13:39:41.792Z,1007.04
2023-03-20T13:40:41.823Z,1006.94
2023-03-20T13:41:41.794Z,1006.91
2023-03-20T13:42:41.838Z,1006.95
2023-03-20T13:43:41.774Z,1006.93
2023-03-20T13:44:41.772Z,1006.97
2023-03-20T13:45:41.797Z,1006.99
2023-03-20T13:46:41.863Z,1006.93
2023-03-20T13:47:41.744Z,1006.97
2023-03-20T13:48:41.750Z,1007.10
2023-03-20T13:49:41.684Z,1007.08
2023-03-20T13:50:41.700Z,1006.99
2023-03-20T13:51:41.703Z,1006.99
2023-03-20T13:52:41.672Z,1006.99
2023-03-20T13:53:41.673Z,1006.92
2023-03-20T13:54:41.653Z,1006.94
2023-03-20T13:55:41.636Z,1006.92
2023-03-20T13:56:41.679Z,1006.94
2023-03-20T13:57:41.600Z,1006.89
2023-03-20T13:58:41.632Z,1006.91
2023-03-20T13:59:41.613Z,1006.87
2023-03-20T14:00:41.665Z,1006.90
2023-03-20T14:01:41.587Z,1006.92
2023-03-20T14:02:41.583Z,1006.93
2023-03-20T14:03:41.596Z,1006.87
2023-03-20T14:04:41.542Z,1006.85
2023-03-20T14:05:41.517Z,1006.83
2023-03-20T14:06:43.948Z,1006.81
2023-03-20T14:07:41.506Z,1006.90
2023-03-20T14:08:41.522Z,1006.86
2023-03-20T14:09:41.480Z,1006.75
2023-03-20T14:10:41.487Z,1006.79
2023-03-20T14:11:41.493Z,1006.73
2023-03-20T14:12:41.467Z,1006.75
2023-03-20T14:13:41.426Z,1006.75
2023-03-20T14:14:41.448Z,1006.74
2023-03-20T14:15:41.410Z,1006.74
2023-03-20T14:16:41.413Z,1006.74
2023-03-20T14:17:41.408Z,1006.72
2023-03-20T14:18:41.403Z,1006.74
2023-03-20T14:19:41.366Z,1006.73
2023-03-20T14:20:41.391Z,1006.75
2023-03-20T14:21:41.370Z,1006.71
2023-03-20T14:22:41.350Z,1006.70
2023-03-20T14:23:41.313Z,1006.70
2023-03-20T14:24:41.370Z,1006.80
2023-03-20T14:25:41.298Z,1006.75
2023-03-20T14:26:41.299Z,1006.79
2023-03-20T14:27:44.735Z,1006.80
2023-03-20T14:28:41.285Z,1006.72
2023-03-20T14:29:41.250Z,1006.72
2023-03-20T14:30:41.286Z,1006.71
2023-03-20T14:31:41.250Z,1006.73
2023-03-20T14:32:41.252Z,1006.73
2023-03-20T14:33:41.210Z,1006.80
2023-03-20T14:34:41.217Z,1006.73
2023-03-20T14:35:41.220Z,1006.74
2023-03-20T14:36:41.199Z,1006.75
2023-03-20T14:37:41.178Z,1006.78
2023-03-20T14:38:41.169Z,1006.77
2023-03-20T14:39:41.147Z,1006.78
2023-03-20T14:40:41.144Z,1006.75
2023-03-20T14:41:41.125Z,1006.81
2023-03-20T14:42:41.178Z,1006.76
2023-03-20T14:43:41.171Z,1006.84
2023-03-20T14:44:43.081Z,1006.81
2023-03-20T14:45:41.091Z,1006.81
2023-03-20T14:46:41.100Z,1006.76
2023-03-20T14:47:42.012Z,1006.75
2023-03-20T14:48:41.115Z,1006.78
2023-03-20T14:49:41.066Z,1006.77
2023-03-20T14:50:41.062Z,1006.77
2023-03-20T14:51:41.013Z,1006.83
2023-03-20T14:52:41.038Z,1006.74
2023-03-20T14:53:41.028Z,1006.81
2023-03-20T14:54:41.007Z,1006.83
2023-03-20T14:55:40.964Z,1006.80
2023-03-20T14:56:40.964Z,1006.87
2023-03-20T14:57:55.495Z,1006.81
2023-03-20T14:58:40.950Z,1006.80
2023-03-20T14:59:40.943Z,1006.85
2023-03-20T15:00:40.951Z,1006.80
2023-03-20T15:01:40.958Z,1006.80
2023-03-20T15:02:40.928Z,1006.84
2023-03-20T15:03:40.890Z,1006.85
2023-03-20T15:04:40.896Z,1006.78
2023-03-20T15:05:40.901Z,1006.84
2023-03-20T15:06:40.864Z,1006.80
2023-03-20T15:07:40.858Z,1006.90
2023-03-20T15:08:40.839Z,1006.88
2023-03-20T15:09:40.822Z,1006.87
2023-03-20T15:10:40.842Z,1006.91
2023-03-20T15:11:40.797Z,1006.89
2023-03-20T15:12:40.807Z,1006.98
2023-03-20T15:13:40.819Z,1006.96
2023-03-20T15:14:40.783Z,1006.83
2023-03-20T15:15:40.747Z,1006.91
2023-03-20T15:16:40.764Z,1007.00
2023-03-20T15:17:40.732Z,1006.84
2023-03-20T15:18:40.729Z,1006.85
2023-03-20T15:19:40.742Z,1006.87
2023-03-20T15:20:40.712Z,1006.82
2023-03-20T15:21:40.683Z,1006.80
2023-03-20T15:22:40.704Z,1006.82
2023-03-20T15:23:40.670Z,1006.85
2023-03-20T15:24:40.675Z,1006.86
2023-03-20T15:25:40.652Z,1006.80
2023-03-20T15:26:40.636Z,1006.87
2023-03-20T15:27:40.621Z,1006.78
2023-03-20T15:28:40.637Z,1006.81
2023-03-20T15:29:40.614Z,1006.86
2023-03-20T15:30:40.683Z,1006.84
2023-03-20T15:31:40.608Z,1006.84
2023-03-20T15:32:40.721Z,1006.86
2023-03-20T15:33:40.586Z,1006.81
2023-03-20T15:34:40.565Z,1006.84
2023-03-20T15:35:40.565Z,1006.85
2023-03-20T15:36:40.535Z,1006.85
2023-03-20T15:37:40.543Z,1006.88
2023-03-20T15:38:40.559Z,1006.85
2023-03-20T15:39:40.501Z,1006.93
2023-03-20T15:40:50.474Z,1006.83
2023-03-20T15:41:40.515Z,1006.87
2023-03-20T15:42:40.520Z,1006.87
2023-03-20T15:43:40.481Z,1006.84
2023-03-20T15:44:40.492Z,1006.88
2023-03-20T15:45:40.464Z,1006.88
2023-03-20T15:46:40.432Z,1006.86
2023-03-20T15:47:40.401Z,1006.87
2023-03-20T15:48:40.441Z,1006.81
2023-03-20T15:49:40.387Z,1006.85
2023-03-20T15:50:43.051Z,1006.85
2023-03-20T15:51:40.359Z,1006.81
2023-03-20T15:52:40.393Z,1006.82
2023-03-20T15:53:40.338Z,1006.83
2023-03-20T15:54:40.352Z,1006.89
2023-03-20T15:55:40.348Z,1006.92
2023-03-20T15:56:40.327Z,1006.89
2023-03-20T15:57:40.342Z,1006.94
2023-03-20T15:58:40.293Z,1006.95
2023-03-20T15:59:40.271Z,1006.89
2023-03-20T16:00:40.280Z,1006.88
2023-03-20T16:01:40.307Z,1006.87
2023-03-20T16:02:40.263Z,1006.84
2023-03-20T16:03:40.227Z,1006.85
2023-03-20T16:04:40.247Z,1006.89
2023-03-20T16:05:40.231Z,1006.85
2023-03-20T16:06:40.222Z,1006.86
2023-03-20T16:07:40.201Z,1006.88
2023-03-20T16:08:40.195Z,1006.86
2023-03-20T16:09:40.161Z,1006.90
2023-03-20T16:10:40.170Z,1006.90
2023-03-20T16:11:40.189Z,1006.88
2023-03-20T16:12:40.163Z,1006.93
2023-03-20T16:13:40.117Z,1006.96
2023-03-20T16:14:40.128Z,1006.96
2023-03-20T16:15:40.182Z,1007.12
2023-03-20T16:16:40.116Z,1007.06
2023-03-20T16:17:40.080Z,1006.94
2023-03-20T16:18:40.090Z,1006.99
2023-03-20T16:19:40.077Z,1006.93
2023-03-20T16:20:40.085Z,1006.96
2023-03-20T16:21:40.062Z,1006.94
2023-03-20T16:22:40.044Z,1007.12
2023-03-20T16:23:40.020Z,1007.04
2023-03-20T16:24:40.022Z,1007.13
2023-03-20T16:25:39.990Z,1007.17
2023-03-20T16:26:40.029Z,1007.10
2023-03-20T16:27:40.003Z,1007.05
2023-03-20T16:28:39.967Z,1007.04
2023-03-20T16:29:39.974Z,1007.08
2023-03-20T16:30:39.967Z,1007.04
2023-03-20T16:31:39.936Z,1007.05
2023-03-20T16:32:39.985Z,1007.03
2023-03-20T16:33:39.906Z,1007.04
2023-03-20T16:34:39.919Z,1007.02
2023-03-20T16:35:39.924Z,1007.03